Birger Jarl — SIAU — position and weather

sailwx.info

Track history (hours):
 
Tides and Currents Weather Stations Pressure Air Temp Water Temp Dewpoint Dewpoint Depression Visibility Wind Speed Wind Dir Waves Ship Positions

Birger Jarl

Last reported at 2016-Sep-28 19:33 UTC. Time now 2016-Sep-28 20:31 UTC.
Position N 59°19' E 018°05'.

Length 92 m; draft 5.1 m.

Type: Passenger vessel. MMSI: 265878000.

Date/timePositionNaut miles runAvg speedWind from/ knotsBaromVisibWave heightAir tempDewpointWater temp
2016-Sep-28 19:33N 59°19' E 018°05'0 0.0
2016-Sep-28 15:24N 59°19' E 018°05'0 0.0
2016-Sep-28 12:33N 59°19' E 018°05'0 0.0
2016-Sep-28 08:33N 59°19' E 018°05'0 0.0
2016-Sep-28 03:33N 59°19' E 018°05'0 0.0
2016-Sep-28 02:33N 59°19' E 018°05'0 0.0
2016-Sep-28 01:33N 59°19' E 018°05'0 0.0
2016-Sep-27 23:33N 59°19' E 018°05'0 0.0
2016-Sep-27 19:33N 59°19' E 018°05'0 0.0
2016-Sep-27 10:33N 59°19' E 018°05'0 0.0
2016-Sep-27 00:33N 59°19' E 018°05'0 0.0
2016-Sep-26 20:33N 59°19' E 018°05'0 0.0
2016-Sep-26 19:33N 59°19' E 018°05'0 0.0
2016-Sep-26 15:27N 59°19' E 018°05'0 0.0
2016-Sep-26 13:33N 59°19' E 018°05'0 0.0
2016-Sep-26 11:33N 59°19' E 018°05'0 0.0
2016-Sep-26 08:33N 59°19' E 018°05'0 0.0
2016-Sep-26 02:33N 59°19' E 018°05'0 0.0
2016-Sep-26 01:33N 59°19' E 018°05'0 0.0
2016-Sep-26 00:33N 59°19' E 018°05'0 0.0
2016-Sep-25 21:33N 59°19' E 018°05'0 0.0
2016-Sep-25 16:30N 59°19' E 018°05'0 0.0
2016-Sep-25 15:33N 59°19' E 018°05'0 0.0
2016-Sep-25 14:30N 59°19' E 018°05'0 0.2
2016-Sep-25 12:34N 59°19' E 018°06'6 5.8
2016-Sep-25 11:34N 59°22' E 018°16'3 3.4
2016-Sep-25 10:34N 59°20' E 018°11'3 3.0
2016-Sep-25 09:32N 59°19' E 018°05'0 0.0
2016-Sep-25 07:32N 59°19' E 018°05'0 0.0
2016-Sep-25 04:32N 59°19' E 018°05'0 0.0
2016-Sep-25 00:32N 59°19' E 018°05'0 0.0
2016-Sep-24 22:32N 59°19' E 018°05'0 0.0
2016-Sep-24 21:20N 59°19' E 018°05'0 0.0
2016-Sep-24 19:32N 59°19' E 018°05'0 0.0
2016-Sep-24 18:32N 59°19' E 018°05'0 0.0
2016-Sep-24 17:32N 59°19' E 018°05'0 0.0
2016-Sep-24 16:32N 59°19' E 018°05'0 0.0
2016-Sep-24 14:32N 59°19' E 018°05'0 0.2
2016-Sep-24 12:33N 59°19' E 018°06'3 1.3
2016-Sep-24 10:33N 59°20' E 018°11'3 3.0
2016-Sep-24 09:33N 59°19' E 018°05'0 0.0
2016-Sep-24 03:32N 59°19' E 018°05'0 0.0
2016-Sep-24 02:32N 59°19' E 018°05'0 0.0
2016-Sep-24 01:32N 59°19' E 018°05'0 0.0
2016-Sep-24 00:29N 59°19' E 018°05'0 0.0
2016-Sep-23 19:32N 59°19' E 018°05'0 0.0
2016-Sep-23 17:26N 59°19' E 018°05'0 0.0
2016-Sep-23 16:32N 59°19' E 018°05'0 0.0
2016-Sep-23 15:32N 59°19' E 018°05'0 0.0
2016-Sep-23 13:32N 59°19' E 018°05'0 0.0
2016-Sep-23 09:32N 59°19' E 018°05'0 0.0
2016-Sep-23 06:32N 59°19' E 018°05'0 0.0
2016-Sep-23 04:32N 59°19' E 018°05'0 0.0
2016-Sep-23 03:32N 59°19' E 018°05'0 0.0
2016-Sep-23 02:32N 59°19' E 018°05'0 0.0
2016-Sep-23 01:32N 59°19' E 018°05'0 0.0
2016-Sep-23 00:32N 59°19' E 018°05'0 0.0
2016-Sep-22 23:32N 59°19' E 018°05'0 0.0
2016-Sep-22 20:32N 59°19' E 018°05'0 0.0
2016-Sep-22 12:32N 59°19' E 018°05'0 0.0
2016-Sep-22 04:32N 59°19' E 018°05'0 0.0
2016-Sep-22 03:32N 59°19' E 018°05'0 0.0
2016-Sep-22 00:32N 59°19' E 018°05'0 0.0
2016-Sep-21 23:32N 59°19' E 018°05'0 0.0
2016-Sep-21 22:32N 59°19' E 018°05'0 0.0
2016-Sep-21 19:32N 59°19' E 018°05'0 0.0
2016-Sep-21 16:29N 59°19' E 018°05'0 0.0
2016-Sep-21 09:32N 59°19' E 018°05'0 0.0
2016-Sep-21 08:32N 59°19' E 018°05'0 0.0
2016-Sep-21 05:32N 59°19' E 018°05'0 0.0
2016-Sep-21 03:32N 59°19' E 018°05'0 0.0
2016-Sep-21 02:29N 59°19' E 018°05'0 0.0
2016-Sep-20 17:32N 59°19' E 018°05'0 0.0
2016-Sep-20 14:32N 59°19' E 018°05'0 0.0
2016-Sep-20 13:32N 59°19' E 018°05'0 0.0
2016-Sep-20 10:32N 59°19' E 018°05'0 0.0
2016-Sep-20 08:32N 59°19' E 018°05'0 0.0
2016-Sep-20 07:32N 59°19' E 018°05'0 0.0
2016-Sep-20 06:32N 59°19' E 018°05'0 0.0
2016-Sep-20 02:32N 59°19' E 018°05'0 0.0
2016-Sep-19 23:32N 59°19' E 018°05'0 0.0
2016-Sep-19 19:32N 59°19' E 018°05'0 0.0
2016-Sep-19 18:32N 59°19' E 018°05'0 0.0
2016-Sep-19 16:29N 59°19' E 018°05'0 0.0
2016-Sep-19 14:32N 59°19' E 018°05'0 0.0
2016-Sep-19 13:32N 59°19' E 018°05'0 0.0
2016-Sep-19 12:32N 59°19' E 018°05'0 0.0
2016-Sep-19 11:32N 59°19' E 018°05'0 0.0
2016-Sep-19 09:32N 59°19' E 018°05'0 0.0
2016-Sep-19 07:32N 59°19' E 018°05'0 0.0
2016-Sep-19 06:32N 59°19' E 018°05'0 0.0
2016-Sep-19 03:32N 59°19' E 018°05'0 0.0
2016-Sep-19 02:32N 59°19' E 018°05'0 0.0
2016-Sep-19 00:32N 59°19' E 018°05'  
Track history (hours):
 
Tides and Currents Weather Stations Pressure Air Temp Water Temp Dewpoint Dewpoint Depression Visibility Wind Speed Wind Dir Waves Ship Positions

Birger Jarl

Last reported at 2016-Sep-28 19:33 UTC. Time now 2016-Sep-28 20:31 UTC.
Position N 59°19' E 018°05'.

Length 92 m; draft 5.1 m.

Type: Passenger vessel. MMSI: 265878000.

Date/timePositionNaut miles runAvg speedWind from/ knotsBaromVisibWave heightAir tempDewpointWater temp
2016-Sep-28 19:33N 59°19' E 018°05'0 0.0
2016-Sep-28 15:24N 59°19' E 018°05'0 0.0
2016-Sep-28 12:33N 59°19' E 018°05'0 0.0
2016-Sep-28 08:33N 59°19' E 018°05'0 0.0
2016-Sep-28 03:33N 59°19' E 018°05'0 0.0
2016-Sep-28 02:33N 59°19' E 018°05'0 0.0
2016-Sep-28 01:33N 59°19' E 018°05'0 0.0
2016-Sep-27 23:33N 59°19' E 018°05'0 0.0
2016-Sep-27 19:33N 59°19' E 018°05'0 0.0
2016-Sep-27 10:33N 59°19' E 018°05'0 0.0
2016-Sep-27 00:33N 59°19' E 018°05'0 0.0
2016-Sep-26 20:33N 59°19' E 018°05'0 0.0
2016-Sep-26 19:33N 59°19' E 018°05'0 0.0
2016-Sep-26 15:27N 59°19' E 018°05'0 0.0
2016-Sep-26 13:33N 59°19' E 018°05'0 0.0
2016-Sep-26 11:33N 59°19' E 018°05'0 0.0
2016-Sep-26 08:33N 59°19' E 018°05'0 0.0
2016-Sep-26 02:33N 59°19' E 018°05'0 0.0
2016-Sep-26 01:33N 59°19' E 018°05'0 0.0
2016-Sep-26 00:33N 59°19' E 018°05'0 0.0
2016-Sep-25 21:33N 59°19' E 018°05'0 0.0
2016-Sep-25 16:30N 59°19' E 018°05'0 0.0
2016-Sep-25 15:33N 59°19' E 018°05'0 0.0
2016-Sep-25 14:30N 59°19' E 018°05'0 0.2
2016-Sep-25 12:34N 59°19' E 018°06'6 5.8
2016-Sep-25 11:34N 59°22' E 018°16'3 3.4
2016-Sep-25 10:34N 59°20' E 018°11'3 3.0
2016-Sep-25 09:32N 59°19' E 018°05'0 0.0
2016-Sep-25 07:32N 59°19' E 018°05'0 0.0
2016-Sep-25 04:32N 59°19' E 018°05'0 0.0
2016-Sep-25 00:32N 59°19' E 018°05'0 0.0
2016-Sep-24 22:32N 59°19' E 018°05'0 0.0
2016-Sep-24 21:20N 59°19' E 018°05'0 0.0
2016-Sep-24 19:32N 59°19' E 018°05'0 0.0
2016-Sep-24 18:32N 59°19' E 018°05'0 0.0
2016-Sep-24 17:32N 59°19' E 018°05'0 0.0
2016-Sep-24 16:32N 59°19' E 018°05'0 0.0
2016-Sep-24 14:32N 59°19' E 018°05'0 0.2
2016-Sep-24 12:33N 59°19' E 018°06'3 1.3
2016-Sep-24 10:33N 59°20' E 018°11'3 3.0
2016-Sep-24 09:33N 59°19' E 018°05'0 0.0
2016-Sep-24 03:32N 59°19' E 018°05'0 0.0
2016-Sep-24 02:32N 59°19' E 018°05'0 0.0
2016-Sep-24 01:32N 59°19' E 018°05'0 0.0
2016-Sep-24 00:29N 59°19' E 018°05'0 0.0
2016-Sep-23 19:32N 59°19' E 018°05'0 0.0
2016-Sep-23 17:26N 59°19' E 018°05'0 0.0
2016-Sep-23 16:32N 59°19' E 018°05'0 0.0
2016-Sep-23 15:32N 59°19' E 018°05'0 0.0
2016-Sep-23 13:32N 59°19' E 018°05'0 0.0
2016-Sep-23 09:32N 59°19' E 018°05'0 0.0
2016-Sep-23 06:32N 59°19' E 018°05'0 0.0
2016-Sep-23 04:32N 59°19' E 018°05'0 0.0
2016-Sep-23 03:32N 59°19' E 018°05'0 0.0
2016-Sep-23 02:32N 59°19' E 018°05'0 0.0
2016-Sep-23 01:32N 59°19' E 018°05'0 0.0
2016-Sep-23 00:32N 59°19' E 018°05'0 0.0
2016-Sep-22 23:32N 59°19' E 018°05'0 0.0
2016-Sep-22 20:32N 59°19' E 018°05'0 0.0
2016-Sep-22 12:32N 59°19' E 018°05'0 0.0
2016-Sep-22 04:32N 59°19' E 018°05'0 0.0
2016-Sep-22 03:32N 59°19' E 018°05'0 0.0
2016-Sep-22 00:32N 59°19' E 018°05'0 0.0
2016-Sep-21 23:32N 59°19' E 018°05'0 0.0
2016-Sep-21 22:32N 59°19' E 018°05'0 0.0
2016-Sep-21 19:32N 59°19' E 018°05'0 0.0
2016-Sep-21 16:29N 59°19' E 018°05'0 0.0
2016-Sep-21 09:32N 59°19' E 018°05'0 0.0
2016-Sep-21 08:32N 59°19' E 018°05'0 0.0
2016-Sep-21 05:32N 59°19' E 018°05'0 0.0
2016-Sep-21 03:32N 59°19' E 018°05'0 0.0
2016-Sep-21 02:29N 59°19' E 018°05'0 0.0
2016-Sep-20 17:32N 59°19' E 018°05'0 0.0
2016-Sep-20 14:32N 59°19' E 018°05'0 0.0
2016-Sep-20 13:32N 59°19' E 018°05'0 0.0
2016-Sep-20 10:32N 59°19' E 018°05'0 0.0
2016-Sep-20 08:32N 59°19' E 018°05'0 0.0
2016-Sep-20 07:32N 59°19' E 018°05'0 0.0
2016-Sep-20 06:32N 59°19' E 018°05'0 0.0
2016-Sep-20 02:32N 59°19' E 018°05'0 0.0
2016-Sep-19 23:32N 59°19' E 018°05'0 0.0
2016-Sep-19 19:32N 59°19' E 018°05'0 0.0
2016-Sep-19 18:32N 59°19' E 018°05'0 0.0
2016-Sep-19 16:29N 59°19' E 018°05'0 0.0
2016-Sep-19 14:32N 59°19' E 018°05'0 0.0
2016-Sep-19 13:32N 59°19' E 018°05'0 0.0
2016-Sep-19 12:32N 59°19' E 018°05'0 0.0
2016-Sep-19 11:32N 59°19' E 018°05'0 0.0
2016-Sep-19 09:32N 59°19' E 018°05'0 0.0
2016-Sep-19 07:32N 59°19' E 018°05'0 0.0
2016-Sep-19 06:32N 59°19' E 018°05'0 0.0
2016-Sep-19 03:32N 59°19' E 018°05'0 0.0
2016-Sep-19 02:32N 59°19' E 018°05'0 0.0
2016-Sep-19 00:32N 59°19' E 018°05'  

Dump ship's entire track history